Flight Track Log - Related Links

Times and Time Zones

All times are in EDT time to prevent confusion due to time zone crossing. See the N717D flight status page for this flight to view local times or setup timezone preferences in your user account.

Time Position Orientation Groundspeed Altitude Reporting Facility
EDT Latitude Longitude Course Direction KTS MPH feet Rate Location/Type
Fri 10:24:23 PM 42.1000 -87.8833 50° Northeast 170 196 1,800  Level Chicago TRACON
Fri 10:25:10 PM 42.1231 -87.8464 50° Northeast 207 238 2,800 667 Climbing Chicago Center
Fri 10:26:11 PM 42.1431 -87.7600 73° East 241 277 3,000 1,426 Climbing Chicago Center
Fri 10:27:12 PM 42.1203 -87.6603 107° East 237 273 5,700 2,293 Climbing Chicago Center
Fri 10:28:14 PM 42.0897 -87.5664 114° Southeast 258 297 7,700 2,098 Climbing Chicago Center
Fri 10:29:15 PM 42.0786 -87.4575 98° East 296 341 10,000 2,213 Climbing Chicago Center
Fri 10:30:16 PM 42.0797 -87.3439 89° East 302 348 12,200 1,967 Climbing Chicago Center
Fri 10:31:17 PM 42.0819 -87.2261 89° East 312 359 14,000 1,707 Climbing Chicago Center
Fri 10:32:19 PM 42.0811 -87.1044 90° East 322 371 15,700 1,805 Climbing Chicago Center
Fri 10:33:20 PM 42.0817 -86.9794 90° East 330 380 17,700 1,623 Climbing Chicago Center
Fri 10:34:21 PM 42.0803 -86.8564 91° East 332 382 19,000 1,574 Climbing Chicago Center
Fri 10:35:22 PM 42.0567 -86.6931 101° East 364 419 20,900 1,463 Climbing Chicago Center
Fri 10:36:24 PM 42.0456 -86.5794 97° East 364 419 22,000 732 Climbing Chicago Center
Fri 10:37:25 PM 42.0275 -86.4375 100° East 382 440 22,400 689 Climbing Chicago Center
Fri 10:38:26 PM 42.0106 -86.2925 99° East 393 452 23,400 1,561 Climbing Chicago Center
Fri 10:39:28 PM 41.9917 -86.1211 98° East 388 447 25,600 1,366 Climbing Chicago Center
Fri 10:40:29 PM 41.9739 -85.9775 99° East 388 447 26,200 1,180 Climbing Chicago Center
Fri 10:41:30 PM 41.9564 -85.8275 99° East 401 461 28,000 1,672 Climbing Chicago Center
Fri 10:42:31 PM 41.9386 -85.6825 99° East 395 455 29,600 1,024 Climbing Chicago Center
Fri 10:43:33 PM 41.9206 -85.5322 99° East 400 460 30,100 878 Climbing Chicago Center
Fri 10:44:34 PM 41.9022 -85.3733 99° East 420 483 31,400 1,082 Climbing Chicago Center
Fri 10:45:35 PM 41.8814 -85.2161 100° East 422 486 32,300 1,377 Climbing Chicago Center
Fri 10:46:36 PM 41.8619 -85.0606 99° East 419 482 34,200 1,463 Climbing Chicago Center
Fri 10:47:38 PM 41.8425 -84.9136 100° East 403 464 35,300 878 Climbing Chicago Center
Fri 10:48:39 PM 41.8225 -84.7603 100° East 414 476 36,000 743 Climbing Chicago Center
Fri 10:49:31 PM 41.8039 -84.6031 99° East 415 478 36,700 536 Climbing Cleveland Center
Fri 10:50:31 PM 41.7822 -84.4458 100° East 415 478 37,000 150 Climbing Cleveland Center
Fri 10:51:31 PM 41.7458 -84.2822 107° East 434 499 37,000  Level Cleveland Center
Fri 10:52:31 PM 41.7111 -84.1300 107° East 457 526 37,000  Level Cleveland Center
Fri 10:53:31 PM 41.6747 -83.9556 106° East 472 543 37,000  Level Cleveland Center
Fri 10:54:31 PM 41.6358 -83.7811 107° East 483 556 37,000  Level Cleveland Center
Fri 10:55:31 PM 41.5969 -83.6014 106° East 488 562 37,000  Level Cleveland Center
Fri 10:56:31 PM 41.5578 -83.4247 106° East 488 562 37,000  Level Cleveland Center
Fri 10:57:31 PM 41.5203 -83.2483 106° East 488 562 37,000  Level Cleveland Center
Fri 10:58:31 PM 41.4789 -83.0556 106° East 488 562 37,000  Level Cleveland Center
Fri 10:59:31 PM 41.4367 -82.8792 108° East 488 562 37,000  Level Cleveland Center
Fri 11:00:31 PM 41.3983 -82.7036 106° East 488 562 37,000  Level Cleveland Center
Fri 11:01:31 PM 41.3556 -82.5250 108° East 494 568 37,000 -400 Level Cleveland Center
Fri 11:02:31 PM 41.3167 -82.3497 106° East 494 568 36,200 -900 Descending Cleveland Center
Fri 11:03:31 PM 41.2775 -82.1800 107° East 494 568 35,200 -950 Descending Cleveland Center
Fri 11:04:31 PM 41.2422 -82.0192 106° East 477 549 34,300 -950 Descending Cleveland Center
Fri 11:05:31 PM 41.2044 -81.8636 108° East 455 524 33,300 -1,050 Descending Cleveland Center
Fri 11:06:31 PM 41.1664 -81.7031 107° East 450 518 32,200 -1,150 Descending Cleveland Center
Fri 11:07:31 PM 41.1283 -81.5397 107° East 450 518 31,000 -1,250 Descending Cleveland Center
Fri 11:08:31 PM 41.0878 -81.3819 109° East 450 518 29,700 -1,250 Descending Cleveland Center
Fri 11:09:31 PM 41.0492 -81.2247 108° East 455 524 28,500 -1,200 Descending Cleveland Center
Fri 11:10:31 PM 41.0083 -81.0592 108° East 455 524 27,300 -1,150 Descending Cleveland Center
Fri 11:11:31 PM 40.9714 -80.8994 107° East 461 531 26,200 -1,100 Descending Cleveland Center
Fri 11:12:31 PM 40.9342 -80.7453 108° East 450 518 25,100 -1,100 Descending Cleveland Center
Fri 11:13:31 PM 40.8947 -80.5914 109° East 445 512 24,000 -550 Descending Cleveland Center
Fri 11:14:31 PM 40.8592 -80.4542 109° East 440 506 24,000  Level Cleveland Center
Fri 11:15:31 PM 40.8172 -80.2922 109° East 440 506 24,000 -700 Level Cleveland Center
Fri 11:16:31 PM 40.7772 -80.1444 110° East 434 499 22,600 -1,850 Descending Cleveland Center
Fri 11:17:31 PM 40.7411 -80.0022 108° East 420 483 20,300 -2,350 Descending Cleveland Center
Fri 11:18:31 PM 40.7069 -79.8628 108° East 408 470 17,900 -2,250 Descending Cleveland Center
Fri 11:19:31 PM 40.6747 -79.7317 108° East 396 456 15,800 -1,450 Descending Cleveland Center
Fri 11:20:31 PM 40.6403 -79.6008 109° East 383 441 15,000 -500 Descending Cleveland Center
Fri 11:21:31 PM 40.6058 -79.4728 109° East 378 435 14,800 -1,000 Descending Cleveland Center
Fri 11:22:31 PM 40.5733 -79.3475 109° East 372 428 13,000 -1,700 Descending Cleveland Center
Fri 11:23:31 PM 40.5450 -79.2417 109° East 360 414 11,400 -1,650 Descending Cleveland Center
Fri 11:24:31 PM 40.5122 -79.1275 111° Southeast 340 391 9,700 -1,800 Descending Cleveland Center
Fri 11:25:31 PM 40.4881 -79.0297 108° East 309 356 7,800 -1,650 Descending Cleveland Center
Fri 11:26:31 PM 40.4617 -78.9294 109° East 295 339 6,400 -1,200 Descending Cleveland Center
Fri 11:27:31 PM 40.4375 -78.8372 109° East 281 323 5,400 -800 Descending Cleveland Center
Fri 11:28:31 PM 40.4131 -78.7425 109° East 271 312 4,800 -300 Descending Cleveland Center
Fri 11:29:31 PM 40.3886 -78.6531 110° East 265 305 4,800  Level Cleveland Center
Fri 11:30:31 PM 40.3597 -78.5586 112° Southeast 265 305 4,800  Level Cleveland Center

Login

Don't have an account? Register now (free) for customized features, flight alerts, and more!